Time;durP1;ratioP1;P1;durP2;ratioP2;P2;SDS_P1;SDS_P2;PMS_P1;PMS_P2;Temp;Humidity;BMP_temperature;BMP_pressure;BME280_temperature;BME280_humidity;BME280_pressure;Samples;Min_cycle;Max_cycle;Signal;HPM_P1;HPM_P2
2023/08/28 00:00:20;;;;;;;7.40;2.33;;;;;;;;;;5050347;28;20028;-75
2023/08/28 00:02:48;;;;;;;7.45;1.98;;;;;;;;;;5018078;28;20048;-75
2023/08/28 00:05:13;;;;;;;8.23;2.00;;;;;;;;;;5019920;28;21806;-75
2023/08/28 00:11:32;;;;;;;4.67;1.90;;;;;;;;;;5037714;22;20051;-74
2023/08/28 00:14:00;;;;;;;9.43;1.63;;;;;;;;;;5021812;28;20190;-73
2023/08/28 00:16:25;;;;;;;6.60;1.33;;;;;;;;;;5020457;28;20426;-73
2023/08/28 00:18:51;;;;;;;8.93;2.00;;;;;;;;;;5014559;28;20168;-72
2023/08/28 00:21:16;;;;;;;10.23;2.15;;;;;;;;;;5034729;28;20077;-74
2023/08/28 00:23:44;;;;;;;6.95;1.52;;;;;;;;;;5032606;28;20773;-71
2023/08/28 00:26:09;;;;;;;5.43;1.45;;;;;;;;;;5034363;28;20040;-70
2023/08/28 00:28:34;;;;;;;5.45;2.25;;;;;;;;;;5031690;28;20099;-69
2023/08/28 00:31:02;;;;;;;9.48;2.00;;;;;;;;;;5016487;28;22139;-69
2023/08/28 00:33:27;;;;;;;6.95;1.80;;;;;;;;;;5015300;28;20041;-69
2023/08/28 00:35:53;;;;;;;5.10;1.70;;;;;;;;;;5032007;28;20095;-71
2023/08/28 00:38:20;;;;;;;4.18;1.60;;;;;;;;;;5031775;28;20545;-71
2023/08/28 00:40:46;;;;;;;5.43;1.88;;;;;;;;;;5015597;28;21594;-71
2023/08/28 00:43:13;;;;;;;6.90;1.85;;;;;;;;;;5015096;28;20040;-72
2023/08/28 00:45:44;;;;;;;6.43;1.77;;;;;;;;;;5031781;28;20033;-72
2023/08/28 00:48:10;;;;;;;5.68;1.48;;;;;;;;;;5031988;28;20043;-72
2023/08/28 00:50:37;;;;;;;6.55;1.67;;;;;;;;;;5005636;28;20037;-72
2023/08/28 00:53:02;;;;;;;4.00;1.55;;;;;;;;;;5004768;28;20644;-72
2023/08/28 00:55:29;;;;;;;5.20;1.58;;;;;;;;;;5033350;28;20031;-71
2023/08/28 00:57:54;;;;;;;6.35;1.45;;;;;;;;;;5033718;28;20123;-71
2023/08/28 01:00:20;;;;;;;5.50;1.60;;;;;;;;;;5015446;28;20036;-71
2023/08/28 01:02:45;;;;;;;5.97;1.50;;;;;;;;;;5031778;28;20404;-72
2023/08/28 01:05:10;;;;;;;6.55;1.70;;;;;;;;;;5031147;28;20036;-71
2023/08/28 01:07:46;;;;;;;4.72;1.60;;;;;;;;;;5022741;28;20068;-71
2023/08/28 01:10:38;;;;;;;4.70;1.70;;;;;;;;;;5031939;28;20266;-72
2023/08/28 01:13:25;;;;;;;11.10;1.90;;;;;;;;;;5032508;28;20078;-72
2023/08/28 01:15:51;;;;;;;4.72;1.88;;;;;;;;;;5031640;28;20029;-72
2023/08/28 01:18:17;;;;;;;6.60;1.60;;;;;;;;;;5033509;28;20040;-71
2023/08/28 01:20:42;;;;;;;9.43;1.88;;;;;;;;;;5033003;28;20041;-72
2023/08/28 01:23:14;;;;;;;10.43;2.10;;;;;;;;;;5017059;28;20082;-72
2023/08/28 01:25:39;;;;;;;3.58;1.60;;;;;;;;;;5033488;28;20033;-69
2023/08/28 01:28:05;;;;;;;5.25;1.30;;;;;;;;;;5032963;28;20071;-73
2023/08/28 01:30:30;;;;;;;4.00;1.63;;;;;;;;;;5015601;28;20123;-73
2023/08/28 01:32:55;;;;;;;5.65;1.50;;;;;;;;;;5021301;28;20032;-73
2023/08/28 01:35:24;;;;;;;6.03;1.60;;;;;;;;;;5022807;28;20280;-69
2023/08/28 01:37:52;;;;;;;4.40;1.30;;;;;;;;;;5031504;28;20108;-72
2023/08/28 01:40:20;;;;;;;9.27;1.90;;;;;;;;;;5032705;28;20024;-74
2023/08/28 01:42:49;;;;;;;4.47;1.73;;;;;;;;;;5033316;28;20032;-72
2023/08/28 01:45:15;;;;;;;12.93;1.98;;;;;;;;;;5016416;28;20033;-73
2023/08/28 01:47:40;;;;;;;5.57;1.60;;;;;;;;;;5035011;28;20058;-73
2023/08/28 01:50:06;;;;;;;8.43;1.88;;;;;;;;;;5033234;28;20497;-73
2023/08/28 01:52:31;;;;;;;8.10;1.80;;;;;;;;;;5033602;28;20045;-72
2023/08/28 01:54:56;;;;;;;5.25;2.03;;;;;;;;;;5033057;28;20557;-71
2023/08/28 01:57:21;;;;;;;5.78;1.60;;;;;;;;;;5032645;28;20037;-72
2023/08/28 01:59:47;;;;;;;5.53;1.60;;;;;;;;;;5033274;28;20124;-72
2023/08/28 02:02:12;;;;;;;5.72;1.58;;;;;;;;;;5032262;28;20037;-73
2023/08/28 02:04:37;;;;;;;5.90;1.60;;;;;;;;;;5033151;28;20032;-72
2023/08/28 02:07:05;;;;;;;7.25;1.73;;;;;;;;;;5021027;28;20608;-72
2023/08/28 02:09:30;;;;;;;7.28;1.77;;;;;;;;;;5033560;28;20025;-72
2023/08/28 02:11:55;;;;;;;7.28;1.58;;;;;;;;;;5003356;28;20477;-73
2023/08/28 02:14:21;;;;;;;6.15;1.80;;;;;;;;;;5019092;28;20211;-73
2023/08/28 02:16:48;;;;;;;6.88;1.80;;;;;;;;;;5032757;28;20041;-72
2023/08/28 02:19:14;;;;;;;7.78;1.70;;;;;;;;;;5031961;28;20442;-71
2023/08/28 02:21:41;;;;;;;6.68;1.67;;;;;;;;;;5033214;28;20093;-71
2023/08/28 02:24:07;;;;;;;5.07;1.40;;;;;;;;;;5029918;28;20040;-69
2023/08/28 02:26:34;;;;;;;4.43;1.60;;;;;;;;;;5013843;28;20129;-72
2023/08/28 02:29:03;;;;;;;9.43;1.67;;;;;;;;;;5031896;28;20041;-74
2023/08/28 02:31:28;;;;;;;7.05;1.67;;;;;;;;;;5033671;28;20055;-70
2023/08/28 02:33:53;;;;;;;3.92;1.20;;;;;;;;;;5031577;28;20036;-73
2023/08/28 02:36:21;;;;;;;5.72;1.48;;;;;;;;;;5024351;28;20040;-72
2023/08/28 02:38:49;;;;;;;5.53;1.42;;;;;;;;;;5030738;28;20048;-72
2023/08/28 02:41:14;;;;;;;4.30;1.45;;;;;;;;;;5032769;28;20124;-72
2023/08/28 02:43:39;;;;;;;5.30;1.55;;;;;;;;;;5030751;28;22222;-72
2023/08/28 02:46:05;;;;;;;3.47;1.30;;;;;;;;;;5030881;28;20047;-70
2023/08/28 02:48:30;;;;;;;4.47;1.33;;;;;;;;;;5032697;28;20486;-71
2023/08/28 02:50:55;;;;;;;3.63;1.55;;;;;;;;;;5032435;28;20040;-71
2023/08/28 02:53:21;;;;;;;3.03;1.10;;;;;;;;;;5030425;28;20180;-71
2023/08/28 02:56:08;;;;;;;4.20;1.10;;;;;;;;;;5030232;28;20529;-71
2023/08/28 02:58:35;;;;;;;3.85;1.20;;;;;;;;;;5029897;28;20113;-71
2023/08/28 03:01:00;;;;;;;4.03;1.27;;;;;;;;;;5029266;28;20526;-72
2023/08/28 03:03:26;;;;;;;5.50;1.30;;;;;;;;;;5006620;28;20032;-72
2023/08/28 03:05:51;;;;;;;1.90;1.10;;;;;;;;;;5030236;28;20037;-69
2023/08/28 03:08:16;;;;;;;7.28;1.30;;;;;;;;;;5032459;28;20545;-72
2023/08/28 03:10:45;;;;;;;5.03;1.00;;;;;;;;;;5030350;28;20051;-72
2023/08/28 03:13:10;;;;;;;5.00;1.35;;;;;;;;;;5030030;28;20068;-73
2023/08/28 03:15:35;;;;;;;5.38;0.98;;;;;;;;;;5029958;28;20024;-71
2023/08/28 03:18:01;;;;;;;3.58;1.08;;;;;;;;;;5016514;28;20033;-72
2023/08/28 03:20:31;;;;;;;2.70;0.95;;;;;;;;;;5034194;28;20398;-71
2023/08/28 03:22:57;;;;;;;3.67;1.00;;;;;;;;;;5034290;28;20700;-69
2023/08/28 03:25:22;;;;;;;5.95;1.40;;;;;;;;;;5021309;28;20037;-71
2023/08/28 03:27:47;;;;;;;2.55;1.05;;;;;;;;;;5033304;28;20559;-71
2023/08/28 03:30:13;;;;;;;2.63;0.90;;;;;;;;;;5034228;28;20217;-71
2023/08/28 03:32:38;;;;;;;4.93;1.20;;;;;;;;;;5034439;28;22199;-71
2023/08/28 03:35:04;;;;;;;5.68;1.20;;;;;;;;;;5033458;28;20036;-71
2023/08/28 03:37:29;;;;;;;5.97;1.17;;;;;;;;;;5034545;28;20137;-71
2023/08/28 03:39:54;;;;;;;2.42;1.00;;;;;;;;;;5036312;28;20485;-71
2023/08/28 03:42:21;;;;;;;7.22;1.40;;;;;;;;;;5018515;28;20090;-74
2023/08/28 03:44:49;;;;;;;6.10;1.23;;;;;;;;;;5016593;28;20045;-72
2023/08/28 03:47:14;;;;;;;4.63;1.20;;;;;;;;;;5035268;28;20040;-73
2023/08/28 03:49:42;;;;;;;5.75;1.10;;;;;;;;;;5035378;28;20559;-73
2023/08/28 03:52:09;;;;;;;4.78;1.40;;;;;;;;;;5034379;28;20123;-72
2023/08/28 03:54:35;;;;;;;3.38;1.08;;;;;;;;;;5034573;28;20055;-71
2023/08/28 03:57:00;;;;;;;5.88;1.10;;;;;;;;;;5033915;28;20750;-73
2023/08/28 03:59:25;;;;;;;5.47;1.15;;;;;;;;;;5017663;28;20045;-73
2023/08/28 04:01:51;;;;;;;4.85;1.20;;;;;;;;;;5033698;28;20049;-71
2023/08/28 04:04:19;;;;;;;4.80;1.30;;;;;;;;;;5033885;28;20500;-72
2023/08/28 04:06:46;;;;;;;3.55;1.00;;;;;;;;;;5035271;28;22570;-71
2023/08/28 04:09:14;;;;;;;7.70;1.13;;;;;;;;;;5015333;28;20502;-70
2023/08/28 04:11:42;;;;;;;5.82;1.10;;;;;;;;;;5034421;28;20048;-71
2023/08/28 04:14:07;;;;;;;4.28;1.08;;;;;;;;;;5034623;28;20175;-71
2023/08/28 04:16:32;;;;;;;4.22;0.95;;;;;;;;;;5019310;28;20033;-72
2023/08/28 04:19:00;;;;;;;3.35;0.88;;;;;;;;;;5031351;28;20599;-72
2023/08/28 04:21:25;;;;;;;5.50;0.85;;;;;;;;;;5023233;28;20526;-72
2023/08/28 04:23:53;;;;;;;8.05;1.40;;;;;;;;;;5033126;28;20039;-72
2023/08/28 04:26:18;;;;;;;5.38;1.15;;;;;;;;;;5024218;28;20521;-71
2023/08/28 04:28:44;;;;;;;6.88;1.30;;;;;;;;;;5031802;28;20063;-71
2023/08/28 04:31:13;;;;;;;6.45;1.00;;;;;;;;;;5030356;28;20048;-71
2023/08/28 04:33:39;;;;;;;5.22;1.63;;;;;;;;;;5032153;28;20181;-71
2023/08/28 04:36:04;;;;;;;4.78;1.00;;;;;;;;;;5031609;28;20489;-71
2023/08/28 04:38:29;;;;;;;4.15;1.10;;;;;;;;;;5032684;28;20489;-71
2023/08/28 04:40:54;;;;;;;5.90;1.38;;;;;;;;;;5030876;28;20091;-72
2023/08/28 04:43:24;;;;;;;4.75;1.25;;;;;;;;;;5031903;28;20266;-71
2023/08/28 04:45:51;;;;;;;3.72;1.35;;;;;;;;;;5027291;28;20531;-72
2023/08/28 04:48:18;;;;;;;6.43;1.27;;;;;;;;;;5012003;28;20107;-71
2023/08/28 04:50:43;;;;;;;6.00;1.42;;;;;;;;;;5011629;28;20037;-71
2023/08/28 04:53:13;;;;;;;9.02;1.30;;;;;;;;;;5027887;28;20036;-71
2023/08/28 04:55:39;;;;;;;5.88;1.30;;;;;;;;;;5014232;28;20039;-70
2023/08/28 04:58:05;;;;;;;11.38;1.50;;;;;;;;;;5014009;28;20502;-71
2023/08/28 05:00:30;;;;;;;10.32;1.38;;;;;;;;;;5004713;28;20079;-71
2023/08/28 05:02:56;;;;;;;5.68;1.33;;;;;;;;;;5032796;28;20785;-71
2023/08/28 05:05:21;;;;;;;5.20;1.75;;;;;;;;;;5032304;28;20185;-67
2023/08/28 05:07:48;;;;;;;2.45;1.15;;;;;;;;;;5033726;28;20503;-69
2023/08/28 05:10:14;;;;;;;4.55;1.20;;;;;;;;;;5028721;28;20039;-69
2023/08/28 05:12:39;;;;;;;4.50;1.00;;;;;;;;;;5024448;28;21813;-70
2023/08/28 05:15:05;;;;;;;7.93;1.30;;;;;;;;;;5034368;28;20143;-72
2023/08/28 05:17:30;;;;;;;5.65;1.15;;;;;;;;;;5033682;28;20033;-71
2023/08/28 05:19:55;;;;;;;4.82;1.40;;;;;;;;;;5032054;28;20659;-71
2023/08/28 05:22:20;;;;;;;3.75;1.23;;;;;;;;;;5032503;28;20357;-71
2023/08/28 05:24:48;;;;;;;3.42;1.30;;;;;;;;;;5031536;28;20114;-71
2023/08/28 05:27:13;;;;;;;5.57;1.20;;;;;;;;;;5032438;28;20036;-70
2023/08/28 05:29:39;;;;;;;5.40;1.20;;;;;;;;;;5033206;28;20041;-71
2023/08/28 05:32:04;;;;;;;4.90;1.30;;;;;;;;;;5031651;28;20497;-71
2023/08/28 05:34:32;;;;;;;6.30;1.95;;;;;;;;;;5015531;28;20335;-70
2023/08/28 05:36:59;;;;;;;7.25;2.17;;;;;;;;;;5034289;28;20085;-71
2023/08/28 05:39:25;;;;;;;6.45;1.80;;;;;;;;;;5031331;28;20072;-70
2023/08/28 05:41:50;;;;;;;5.20;1.50;;;;;;;;;;5033196;28;20033;-70
2023/08/28 05:44:15;;;;;;;3.15;1.30;;;;;;;;;;5025226;28;20041;-71
2023/08/28 05:46:43;;;;;;;3.75;1.20;;;;;;;;;;5014125;28;20938;-70
2023/08/28 05:49:08;;;;;;;6.50;1.20;;;;;;;;;;5030646;28;20033;-71
2023/08/28 05:51:33;;;;;;;3.10;0.90;;;;;;;;;;5022161;28;21035;-71
2023/08/28 05:53:59;;;;;;;2.20;0.98;;;;;;;;;;5026162;28;20230;-71
2023/08/28 05:56:24;;;;;;;3.85;1.38;;;;;;;;;;5011363;28;20132;-72
2023/08/28 05:58:49;;;;;;;4.75;1.35;;;;;;;;;;5032638;28;20040;-72
2023/08/28 06:01:15;;;;;;;3.72;1.05;;;;;;;;;;5032315;28;20505;-71
2023/08/28 06:03:40;;;;;;;3.58;1.00;;;;;;;;;;5014787;28;20045;-72
2023/08/28 06:06:05;;;;;;;3.42;1.13;;;;;;;;;;5029390;28;20036;-71
2023/08/28 06:08:30;;;;;;;5.85;1.20;;;;;;;;;;5033051;28;20039;-72
2023/08/28 06:10:56;;;;;;;7.10;1.20;;;;;;;;;;5031616;28;20049;-72
2023/08/28 06:13:21;;;;;;;4.63;1.17;;;;;;;;;;5032624;28;20076;-72
2023/08/28 06:15:48;;;;;;;4.25;1.20;;;;;;;;;;5029172;28;20648;-72
2023/08/28 06:18:13;;;;;;;4.07;1.30;;;;;;;;;;5033522;28;20048;-72
2023/08/28 06:20:39;;;;;;;4.22;1.20;;;;;;;;;;5013619;28;20040;-72
2023/08/28 06:23:04;;;;;;;4.65;1.10;;;;;;;;;;5030557;28;20093;-72
2023/08/28 06:25:29;;;;;;;4.78;1.10;;;;;;;;;;5032153;28;20066;-72
2023/08/28 06:27:54;;;;;;;2.47;0.90;;;;;;;;;;5033201;28;20047;-72
2023/08/28 06:30:20;;;;;;;4.22;1.13;;;;;;;;;;5031274;28;20032;-71
2023/08/28 06:32:45;;;;;;;5.80;0.90;;;;;;;;;;5031954;28;20603;-72
2023/08/28 06:35:11;;;;;;;5.15;1.10;;;;;;;;;;5032349;28;20036;-72
2023/08/28 06:37:36;;;;;;;2.38;0.93;;;;;;;;;;5031325;28;20029;-70
2023/08/28 06:40:03;;;;;;;4.82;1.10;;;;;;;;;;5031768;28;20133;-70
2023/08/28 06:42:28;;;;;;;6.28;1.00;;;;;;;;;;5033248;28;20413;-71
2023/08/28 06:44:56;;;;;;;4.78;0.90;;;;;;;;;;5033585;28;20033;-73
2023/08/28 06:47:21;;;;;;;3.92;0.80;;;;;;;;;;5033121;28;20042;-71
2023/08/28 06:49:47;;;;;;;3.72;0.85;;;;;;;;;;5030528;28;22292;-73
2023/08/28 06:52:12;;;;;;;4.70;1.10;;;;;;;;;;5027419;28;20125;-70
2023/08/28 06:54:37;;;;;;;6.65;1.15;;;;;;;;;;5032495;28;20033;-72
2023/08/28 06:57:03;;;;;;;5.65;1.08;;;;;;;;;;5015387;28;20056;-72
2023/08/28 06:59:28;;;;;;;3.67;0.80;;;;;;;;;;5030900;28;20028;-73
2023/08/28 07:01:53;;;;;;;4.47;0.80;;;;;;;;;;5031367;28;20032;-71
2023/08/28 07:04:19;;;;;;;5.00;0.80;;;;;;;;;;5030355;28;20060;-71
2023/08/28 07:06:44;;;;;;;2.85;0.90;;;;;;;;;;5028181;28;20071;-69
2023/08/28 07:09:09;;;;;;;3.40;1.02;;;;;;;;;;5033353;28;20129;-72
2023/08/28 07:11:37;;;;;;;5.22;0.80;;;;;;;;;;5030502;28;20041;-71
2023/08/28 07:14:03;;;;;;;4.43;0.90;;;;;;;;;;5029213;28;20136;-72
2023/08/28 07:16:28;;;;;;;1.63;0.68;;;;;;;;;;5031786;28;20040;-71
2023/08/28 07:18:53;;;;;;;2.65;0.70;;;;;;;;;;5025617;28;21720;-70
2023/08/28 07:21:19;;;;;;;2.88;0.70;;;;;;;;;;5029999;28;20044;-70
2023/08/28 07:23:44;;;;;;;2.50;0.70;;;;;;;;;;5033354;28;20159;-70
2023/08/28 07:26:09;;;;;;;4.60;0.70;;;;;;;;;;5031657;28;20607;-69
2023/08/28 07:28:35;;;;;;;3.97;0.90;;;;;;;;;;5028867;28;20055;-70
2023/08/28 07:31:02;;;;;;;2.85;0.70;;;;;;;;;;4999767;28;20056;-71
2023/08/28 07:33:27;;;;;;;2.85;0.70;;;;;;;;;;5010556;28;20765;-71
2023/08/28 07:35:52;;;;;;;4.20;0.77;;;;;;;;;;5031091;28;20294;-70
2023/08/28 07:38:18;;;;;;;4.28;0.85;;;;;;;;;;5012919;28;20041;-70
2023/08/28 07:40:46;;;;;;;4.15;0.90;;;;;;;;;;5012364;28;20271;-70
2023/08/28 07:43:11;;;;;;;3.10;0.98;;;;;;;;;;5031678;28;20029;-70
2023/08/28 07:45:36;;;;;;;3.78;0.80;;;;;;;;;;5032930;28;20032;-71
2023/08/28 07:48:02;;;;;;;2.35;0.70;;;;;;;;;;5014524;28;20048;-71
2023/08/28 07:50:30;;;;;;;3.10;0.75;;;;;;;;;;5030886;28;20037;-70
2023/08/28 07:52:58;;;;;;;4.65;0.60;;;;;;;;;;5032684;28;20051;-71
2023/08/28 07:55:23;;;;;;;3.60;0.75;;;;;;;;;;5018339;28;20124;-71
2023/08/28 07:57:49;;;;;;;3.50;0.70;;;;;;;;;;5031353;28;20039;-71
2023/08/28 08:00:20;;;;;;;5.22;2.00;;;;;;;;;;5032640;28;20036;-70
2023/08/28 08:02:46;;;;;;;4.20;1.00;;;;;;;;;;5031820;28;20032;-70
2023/08/28 08:05:11;;;;;;;2.90;0.85;;;;;;;;;;5035862;28;20517;-71
2023/08/28 08:07:39;;;;;;;1.85;0.63;;;;;;;;;;5035618;28;20539;-70
2023/08/28 08:10:07;;;;;;;4.65;0.80;;;;;;;;;;5036054;28;20152;-70
2023/08/28 08:12:32;;;;;;;2.22;0.73;;;;;;;;;;5035251;28;20838;-71
2023/08/28 08:14:58;;;;;;;3.53;0.63;;;;;;;;;;5036061;28;20140;-71
2023/08/28 08:17:23;;;;;;;2.55;0.70;;;;;;;;;;5034741;28;20029;-71
2023/08/28 08:19:48;;;;;;;2.78;0.65;;;;;;;;;;5032433;28;20133;-70
2023/08/28 08:22:13;;;;;;;2.08;0.70;;;;;;;;;;5022529;28;20035;-69
2023/08/28 08:24:39;;;;;;;2.17;0.77;;;;;;;;;;5016400;28;20040;-70
2023/08/28 08:27:04;;;;;;;2.50;0.70;;;;;;;;;;5035570;28;20509;-69
2023/08/28 08:29:29;;;;;;;1.90;0.60;;;;;;;;;;5036054;28;20394;-70
2023/08/28 08:31:55;;;;;;;2.85;0.90;;;;;;;;;;5033928;28;20379;-69
2023/08/28 08:34:22;;;;;;;2.85;0.60;;;;;;;;;;5034617;28;20040;-69
2023/08/28 08:36:47;;;;;;;2.20;0.63;;;;;;;;;;5032560;28;20033;-70
2023/08/28 08:39:15;;;;;;;2.58;0.70;;;;;;;;;;5033623;28;20146;-69
2023/08/28 08:41:41;;;;;;;1.17;0.70;;;;;;;;;;5034603;28;20056;-70
2023/08/28 08:44:07;;;;;;;3.10;0.70;;;;;;;;;;5036634;28;20039;-70
2023/08/28 08:46:33;;;;;;;4.72;0.80;;;;;;;;;;5035696;28;20064;-69
2023/08/28 08:48:59;;;;;;;2.78;0.50;;;;;;;;;;5032923;28;20107;-70
2023/08/28 08:51:25;;;;;;;0.98;0.50;;;;;;;;;;5020766;28;20048;-69
2023/08/28 08:53:59;;;;;;;0.93;0.55;;;;;;;;;;5034908;28;20032;-70
2023/08/28 08:56:27;;;;;;;2.42;0.68;;;;;;;;;;5033445;28;20592;-70
2023/08/28 08:58:53;;;;;;;4.65;0.80;;;;;;;;;;5034259;28;20043;-70
2023/08/28 09:01:19;;;;;;;2.47;0.60;;;;;;;;;;5015533;28;20175;-72
2023/08/28 09:03:45;;;;;;;2.85;0.90;;;;;;;;;;5034684;28;20032;-70
2023/08/28 09:06:13;;;;;;;2.05;0.73;;;;;;;;;;5034862;28;20129;-71
2023/08/28 09:08:42;;;;;;;3.17;0.70;;;;;;;;;;5032853;28;20515;-70
2023/08/28 09:11:09;;;;;;;2.55;0.70;;;;;;;;;;5034102;28;20505;-70
2023/08/28 09:13:35;;;;;;;3.97;0.70;;;;;;;;;;5020524;28;20045;-70
2023/08/28 09:16:03;;;;;;;4.00;0.70;;;;;;;;;;5032109;28;20461;-70
2023/08/28 09:18:29;;;;;;;1.48;0.65;;;;;;;;;;5035381;28;20040;-70
2023/08/28 09:21:07;;;;;;;4.20;0.63;;;;;;;;;;5034443;28;20040;-70
2023/08/28 09:23:33;;;;;;;2.55;0.70;;;;;;;;;;5032994;28;20088;-70
2023/08/28 09:25:58;;;;;;;3.83;0.90;;;;;;;;;;5032967;28;20048;-70
2023/08/28 09:28:24;;;;;;;4.28;1.10;;;;;;;;;;5032936;28;20090;-70
2023/08/28 09:30:49;;;;;;;3.03;0.82;;;;;;;;;;5032311;28;20559;-71
2023/08/28 09:33:15;;;;;;;2.33;0.73;;;;;;;;;;5033937;28;20048;-70
2023/08/28 09:35:41;;;;;;;2.03;0.73;;;;;;;;;;5016819;28;20383;-72
2023/08/28 09:38:09;;;;;;;1.67;0.60;;;;;;;;;;5033435;28;20654;-71
2023/08/28 09:40:41;;;;;;;2.17;0.60;;;;;;;;;;5033801;28;20599;-69
2023/08/28 09:43:13;;;;;;;3.40;0.80;;;;;;;;;;5034647;28;20192;-69
2023/08/28 09:45:39;;;;;;;5.70;0.95;;;;;;;;;;5034289;28;20885;-69
2023/08/28 09:48:05;;;;;;;1.80;0.82;;;;;;;;;;5031721;28;20676;-69
2023/08/28 09:50:31;;;;;;;4.70;1.02;;;;;;;;;;5032854;28;20033;-68
2023/08/28 09:53:09;;;;;;;2.88;0.70;;;;;;;;;;5025793;28;20115;-69
2023/08/28 09:55:39;;;;;;;1.70;0.50;;;;;;;;;;5034236;28;20170;-71
2023/08/28 09:58:07;;;;;;;1.27;0.50;;;;;;;;;;5032791;28;20032;-70
2023/08/28 10:00:37;;;;;;;1.98;0.60;;;;;;;;;;5032807;28;20287;-68
2023/08/28 10:03:04;;;;;;;2.08;0.70;;;;;;;;;;5033656;28;20041;-69
2023/08/28 10:05:49;;;;;;;1.80;0.60;;;;;;;;;;5032439;28;20040;-68
2023/08/28 10:08:34;;;;;;;1.50;0.65;;;;;;;;;;5017841;28;20043;-71
2023/08/28 10:11:18;;;;;;;2.17;0.65;;;;;;;;;;5033581;28;20120;-70
2023/08/28 10:14:03;;;;;;;1.45;0.60;;;;;;;;;;5027335;28;20047;-70
2023/08/28 10:16:52;;;;;;;2.47;0.68;;;;;;;;;;5032030;28;20036;-71
2023/08/28 10:19:38;;;;;;;3.88;0.90;;;;;;;;;;5016682;28;20062;-71
2023/08/28 10:22:23;;;;;;;1.17;0.70;;;;;;;;;;5003485;28;21026;-70
2023/08/28 10:25:11;;;;;;;3.53;0.82;;;;;;;;;;5025701;28;21014;-70
2023/08/28 10:27:54;;;;;;;2.35;0.60;;;;;;;;;;5022921;28;20691;-69
2023/08/28 10:30:39;;;;;;;2.85;0.75;;;;;;;;;;5027147;28;20655;-70
2023/08/28 10:33:34;;;;;;;2.08;0.60;;;;;;;;;;4932360;28;20049;-71
2023/08/28 10:36:20;;;;;;;2.58;0.70;;;;;;;;;;4928725;28;20052;-70
2023/08/28 10:38:46;;;;;;;2.35;0.80;;;;;;;;;;5021738;28;20247;-68
2023/08/28 10:41:12;;;;;;;2.35;0.82;;;;;;;;;;5028050;28;20039;-70
2023/08/28 10:43:37;;;;;;;2.70;0.85;;;;;;;;;;5027094;28;20032;-69
2023/08/28 10:46:03;;;;;;;1.65;0.68;;;;;;;;;;5025656;28;20035;-70
2023/08/28 10:48:28;;;;;;;3.53;0.88;;;;;;;;;;5010774;28;20538;-68
2023/08/28 10:50:57;;;;;;;1.38;0.68;;;;;;;;;;5030324;28;20036;-71
2023/08/28 10:53:22;;;;;;;2.03;0.70;;;;;;;;;;5027128;28;20025;-70
2023/08/28 10:55:59;;;;;;;3.83;0.68;;;;;;;;;;4998267;28;21885;-71
2023/08/28 10:58:28;;;;;;;1.58;0.65;;;;;;;;;;5021066;28;20057;-71
2023/08/28 11:01:09;;;;;;;2.78;0.73;;;;;;;;;;5011359;28;20245;-70
2023/08/28 11:03:56;;;;;;;2.80;0.77;;;;;;;;;;5000888;28;20029;-69
2023/08/28 11:06:33;;;;;;;1.30;0.55;;;;;;;;;;5031908;28;20040;-69
2023/08/28 11:09:19;;;;;;;3.80;0.70;;;;;;;;;;5027781;28;20037;-70
2023/08/28 11:11:44;;;;;;;3.35;0.93;;;;;;;;;;5030655;28;20174;-68
2023/08/28 11:14:13;;;;;;;2.03;0.70;;;;;;;;;;5027001;28;20529;-69
2023/08/28 11:16:39;;;;;;;2.35;0.70;;;;;;;;;;5030001;28;21908;-71
2023/08/28 11:19:04;;;;;;;2.45;0.70;;;;;;;;;;5028006;28;20049;-67
2023/08/28 11:21:38;;;;;;;1.60;0.70;;;;;;;;;;5028482;28;20036;-70
2023/08/28 11:24:15;;;;;;;2.55;0.70;;;;;;;;;;5031066;28;20167;-69
2023/08/28 11:26:46;;;;;;;3.47;0.70;;;;;;;;;;5031575;28;20033;-72
2023/08/28 11:29:27;;;;;;;3.17;0.82;;;;;;;;;;5012506;28;20033;-68
2023/08/28 11:31:52;;;;;;;3.97;0.90;;;;;;;;;;5010976;28;20905;-70
2023/08/28 11:34:18;;;;;;;2.60;0.80;;;;;;;;;;5030769;28;20136;-70
2023/08/28 11:36:43;;;;;;;2.13;0.70;;;;;;;;;;5030938;28;20576;-68
2023/08/28 11:39:22;;;;;;;2.97;0.80;;;;;;;;;;5034126;28;20295;-69
2023/08/28 11:41:48;;;;;;;3.15;0.82;;;;;;;;;;5002405;28;20040;-70
2023/08/28 11:44:14;;;;;;;1.67;0.93;;;;;;;;;;5016249;28;20067;-70
2023/08/28 11:46:39;;;;;;;1.83;0.70;;;;;;;;;;5029951;28;20033;-69
2023/08/28 11:49:08;;;;;;;2.35;0.60;;;;;;;;;;5030380;28;20135;-70
2023/08/28 11:51:35;;;;;;;2.08;0.80;;;;;;;;;;5032866;28;20044;-70
2023/08/28 11:54:03;;;;;;;7.50;0.90;;;;;;;;;;5033884;28;20463;-69
2023/08/28 11:56:32;;;;;;;4.68;1.00;;;;;;;;;;5031043;28;20044;-67
2023/08/28 11:59:00;;;;;;;4.63;0.80;;;;;;;;;;5018302;28;20900;-69
2023/08/28 12:01:28;;;;;;;1.67;0.60;;;;;;;;;;5031050;28;20041;-68
2023/08/28 12:04:04;;;;;;;2.78;0.80;;;;;;;;;;5031821;28;20374;-69
2023/08/28 12:06:35;;;;;;;4.32;0.82;;;;;;;;;;5016543;28;20033;-69
2023/08/28 12:09:00;;;;;;;3.70;0.82;;;;;;;;;;5031662;28;20032;-70
2023/08/28 12:11:26;;;;;;;1.40;0.70;;;;;;;;;;5032601;28;20041;-68
2023/08/28 12:13:54;;;;;;;4.88;0.90;;;;;;;;;;4996865;28;20535;-69
2023/08/28 12:16:22;;;;;;;3.75;0.90;;;;;;;;;;5030830;28;20492;-71
2023/08/28 12:18:49;;;;;;;3.60;0.80;;;;;;;;;;5033462;28;20037;-71
2023/08/28 12:21:18;;;;;;;2.10;0.68;;;;;;;;;;5030992;28;20041;-70
2023/08/28 12:23:44;;;;;;;3.58;0.80;;;;;;;;;;5030562;28;20047;-70
2023/08/28 12:26:10;;;;;;;3.33;0.70;;;;;;;;;;5030338;28;20118;-69
2023/08/28 12:28:35;;;;;;;2.17;0.68;;;;;;;;;;5029348;28;20546;-70
2023/08/28 12:31:00;;;;;;;5.47;0.70;;;;;;;;;;5031256;28;20040;-71
2023/08/28 12:33:26;;;;;;;2.65;0.88;;;;;;;;;;5025059;28;20044;-70
2023/08/28 12:35:52;;;;;;;3.42;0.63;;;;;;;;;;5014189;28;20033;-68
2023/08/28 12:38:17;;;;;;;4.20;0.70;;;;;;;;;;5031240;28;20037;-69
2023/08/28 12:40:44;;;;;;;2.45;0.70;;;;;;;;;;5031826;28;20037;-70
2023/08/28 12:43:09;;;;;;;2.22;0.60;;;;;;;;;;5028351;28;20590;-70
2023/08/28 12:45:37;;;;;;;3.45;0.70;;;;;;;;;;5030227;28;20040;-67
2023/08/28 12:48:02;;;;;;;6.13;0.70;;;;;;;;;;5025085;28;20041;-69
2023/08/28 12:50:28;;;;;;;2.33;0.70;;;;;;;;;;5026044;28;20742;-70
2023/08/28 12:52:53;;;;;;;2.75;0.55;;;;;;;;;;5027981;28;20496;-69
2023/08/28 12:55:18;;;;;;;3.15;0.70;;;;;;;;;;5030267;28;20032;-68
2023/08/28 12:57:44;;;;;;;3.42;0.50;;;;;;;;;;5030874;28;20406;-69
2023/08/28 13:00:11;;;;;;;2.92;0.55;;;;;;;;;;5013459;28;20048;-72
2023/08/28 13:02:37;;;;;;;3.50;0.93;;;;;;;;;;5029612;28;20493;-69
2023/08/28 13:05:03;;;;;;;2.45;0.47;;;;;;;;;;5007811;28;20050;-68
2023/08/28 13:07:28;;;;;;;3.10;0.60;;;;;;;;;;5030237;28;20025;-66
2023/08/28 13:09:55;;;;;;;1.95;0.50;;;;;;;;;;5016215;28;20040;-65
2023/08/28 13:12:20;;;;;;;3.30;0.40;;;;;;;;;;5029832;28;20210;-65
2023/08/28 13:14:46;;;;;;;0.80;0.40;;;;;;;;;;5029780;28;20044;-65
2023/08/28 13:17:11;;;;;;;2.72;0.70;;;;;;;;;;5026304;28;20040;-66
2023/08/28 13:19:37;;;;;;;3.00;0.60;;;;;;;;;;5013154;28;20552;-66
2023/08/28 13:22:03;;;;;;;3.65;0.60;;;;;;;;;;5026703;28;20090;-64
2023/08/28 13:24:28;;;;;;;4.35;0.60;;;;;;;;;;5027718;28;20156;-65
2023/08/28 13:26:53;;;;;;;1.55;0.50;;;;;;;;;;5010189;28;20044;-63
2023/08/28 13:29:19;;;;;;;1.80;0.50;;;;;;;;;;5032407;28;20032;-64
2023/08/28 13:31:44;;;;;;;2.40;0.60;;;;;;;;;;5026978;28;20068;-64
2023/08/28 13:34:09;;;;;;;1.63;0.50;;;;;;;;;;5030484;28;20032;-64
2023/08/28 13:36:34;;;;;;;4.25;0.52;;;;;;;;;;5028621;28;20113;-65
2023/08/28 13:39:01;;;;;;;1.85;0.40;;;;;;;;;;5027107;28;20490;-66
2023/08/28 13:41:27;;;;;;;1.75;0.52;;;;;;;;;;5029248;28;20389;-65
2023/08/28 13:43:52;;;;;;;2.63;0.43;;;;;;;;;;5011542;28;20040;-62
2023/08/28 13:46:17;;;;;;;2.50;0.57;;;;;;;;;;5026616;28;20126;-65
2023/08/28 13:48:45;;;;;;;3.13;0.75;;;;;;;;;;5028373;28;20571;-63
2023/08/28 13:51:11;;;;;;;2.53;0.57;;;;;;;;;;5029324;28;20071;-64
2023/08/28 13:53:36;;;;;;;2.03;0.60;;;;;;;;;;5011132;28;21117;-62
2023/08/28 13:56:01;;;;;;;3.28;0.60;;;;;;;;;;5027439;28;20078;-63
2023/08/28 13:58:29;;;;;;;1.77;0.40;;;;;;;;;;5030519;28;20155;-62
2023/08/28 14:00:57;;;;;;;2.15;0.50;;;;;;;;;;5009224;28;20247;-62
2023/08/28 14:03:23;;;;;;;4.65;0.50;;;;;;;;;;5029382;28;20044;-64
2023/08/28 14:05:50;;;;;;;2.58;0.70;;;;;;;;;;5012925;28;20397;-63
2023/08/28 14:08:16;;;;;;;5.25;0.70;;;;;;;;;;5010771;28;20041;-63
2023/08/28 14:10:43;;;;;;;4.32;0.60;;;;;;;;;;5029574;28;21320;-63
2023/08/28 14:13:08;;;;;;;2.85;0.82;;;;;;;;;;5028304;28;20545;-63
2023/08/28 14:15:34;;;;;;;3.53;0.60;;;;;;;;;;5026908;28;20131;-63
2023/08/28 14:17:59;;;;;;;2.75;0.60;;;;;;;;;;5027901;28;20090;-64
2023/08/28 14:20:25;;;;;;;3.20;0.60;;;;;;;;;;5030333;28;20128;-64
2023/08/28 14:22:50;;;;;;;2.80;0.50;;;;;;;;;;5000941;28;20040;-61
2023/08/28 14:25:15;;;;;;;4.82;0.70;;;;;;;;;;5008642;28;20058;-63
2023/08/28 14:27:43;;;;;;;3.30;1.23;;;;;;;;;;5024320;28;20065;-64
2023/08/28 14:30:08;;;;;;;3.22;0.60;;;;;;;;;;5009901;28;20040;-65
2023/08/28 14:32:34;;;;;;;2.30;0.60;;;;;;;;;;5026524;28;20129;-65
2023/08/28 14:35:02;;;;;;;4.63;0.60;;;;;;;;;;5026863;28;20604;-65
2023/08/28 14:37:28;;;;;;;3.80;0.60;;;;;;;;;;5025324;28;20120;-64
2023/08/28 14:39:55;;;;;;;3.83;0.68;;;;;;;;;;5013507;28;20044;-64
2023/08/28 14:42:21;;;;;;;3.20;0.43;;;;;;;;;;4996901;28;20029;-66
2023/08/28 14:44:46;;;;;;;3.45;0.60;;;;;;;;;;5018603;28;20047;-63
2023/08/28 14:47:13;;;;;;;3.67;0.70;;;;;;;;;;5021688;28;20055;-64